Terminal Aerodrome Forecast
Issued by NWS

Home | Current Version | Previous Version | Text Only | Print | Product List | Glossary On
Versions: 1 2 3 4 5 6 7 8 9 10 11 12
000
FTUS45 KTFX 222300
TAFHLN
TAF
KHLN 222336Z 2300/2324 11008KT P6SM SCT070 BKN150
      TEMPO 2300/2304 VRB20G45KT 5SM -TSRA BKN045CB
     FM230700 VRB06KT P6SM SCT050 BKN090
      TEMPO 2307/2311 VRB15G40KT 5SM -TSRA BKN040CB
     FM231500 VRB06KT P6SM SCT150=

USA.gov is the U.S. government's official web portal to all federal, state and local government web resources and services.